SU6343 / VP-BZR 7700 Squawk Report (16th of January, 2020)

Aircraft A320 Reg No. VP-BZR Age 11 years old
Model A320 Jet engines 2 First flight 11-09-08
Registered 07-06-18 Rollout 09-08 Delivered 21-10-08
Construction No. 3640 Line No. N/A Series 214
ADSHEX 43BE8A Airline name Rossiya Owner GECAS
Airfield based Moscow-Vnukovo~Moscow~RA First tracked 2017-07-13 05:15:00

Flight history for VP-BZR

Route Flight No Date Playback
Pulkovo (LED) - Emelyanovo (KJA) SU6573 2020-02-17 17:00:00
Charles De Gaulle (CDG) - Pulkovo (LED) SU6636 2020-02-17 14:51:00
Pulkovo (LED) - Charles De Gaulle (CDG) SU6635 2020-02-17 12:21:00
Vnukovo (VKO) - Pulkovo (LED) SU6024 2020-02-16 21:00:00
Pulkovo (LED) - Vnukovo (VKO) SU6023 2020-02-16 18:41:00
Malpensa (MXP) - Pulkovo (LED) SU6674 2020-02-16 15:01:00
Pulkovo (LED) - Malpensa (MXP) SU6673 2020-02-16 10:56:00
Fiumicino (FCO) - Pulkovo (LED) SU6676 2020-02-15 15:58:00
Pulkovo (LED) - Fiumicino (FCO) SU6675 2020-02-15 11:15:00
Khrabrovo (KGD) - Pulkovo (LED) SU6330 2020-02-14 17:06:00
Pulkovo (LED) - Khrabrovo (KGD) SU6329 2020-02-14 15:53:00
Emelyanovo (KJA) - Pulkovo (LED) SU6574 2020-02-14 04:27:00
Pulkovo (LED) - Emelyanovo (KJA) SU6573 2020-02-14 02:56:00
Vnukovo (VKO) - Pulkovo (LED) SU6034 2020-02-13 14:03:00
Pulkovo (LED) - Vnukovo (VKO) SU6033 2020-02-13 11:11:00
Vnukovo (VKO) - Pulkovo (LED) SU6598 2020-02-13 08:37:00
Pulkovo (LED) - Vnukovo (VKO) SU6597 2020-02-13 06:20:00
Vnukovo (VKO) - Pulkovo (LED) SU6036 2020-02-12 19:57:00
Pulkovo (LED) - Vnukovo (VKO) SU6035 2020-02-12 17:59:00
Václav Havel Airport Prague (PRG) - Pulkovo (LED) SU6622 2020-02-12 15:16:00
Time Lat Lon Altitude Heading Speed Vertical Rate
2020-01-16 08:17:54 GMT 68.649239 32.994141 3,275 328 152 -320
2020-01-16 08:17:43 GMT 68.643448 33.004108 3,325 329 150 -320
2020-01-16 08:16:47 GMT 68.608063 33.006592 3,475 55 185 -448
2020-01-16 08:16:42 GMT 68.605225 32.994820 3,525 56 189 -320
2020-01-16 08:16:29 GMT 68.599335 32.969971 3,575 56 193 -320
2020-01-16 08:14:20 GMT 68.578987 32.630356 4,775 97 242 -1024
2020-01-16 08:14:16 GMT 68.579590 32.617172 4,850 97 242 -1024
2020-01-16 08:14:04 GMT 68.581192 32.583359 5,025 97 243 -896
2020-01-16 08:13:53 GMT 68.582886 32.546211 5,150 97 247 -640
2020-01-16 08:13:47 GMT 68.583641 32.529968 5,225 97 253 -896
2020-01-16 08:12:44 GMT 68.593231 32.321091 6,700 97 257 -896
2020-01-16 08:12:36 GMT 68.594238 32.298630 6,800 97 259 -640
2020-01-16 08:12:26 GMT 68.595703 32.265671 6,925 97 260 -896
2020-01-16 08:12:16 GMT 68.597145 32.233063 7,100 96 260 -1280
2020-01-16 08:12:06 GMT 68.598633 32.198311 7,375 96 259 -1600
2020-01-16 08:11:56 GMT 68.600121 32.163849 7,625 96 261 -1152
2020-01-16 08:11:45 GMT 68.601517 32.130615 7,775 96 264 -832
2020-01-16 08:11:35 GMT 68.603027 32.097080 7,875 97 272 -896
2020-01-16 08:11:25 GMT 68.604675 32.062683 8,125 97 272 -1792
2020-01-16 08:11:15 GMT 68.606544 32.025558 8,425 98 271 -1408
2020-01-16 08:11:04 GMT 68.608383 31.992317 8,625 98 274 -1344
2020-01-16 08:10:54 GMT 68.610130 31.958130 8,850 96 275 -1408
2020-01-16 08:10:43 GMT 68.609756 31.921953 9,100 76 274 -1792
2020-01-16 08:10:34 GMT 68.605148 31.888779 9,500 58 265 -2048
2020-01-16 08:10:23 GMT 68.597610 31.863235 9,825 42 258 -1792
2020-01-16 08:10:13 GMT 68.587555 31.844559 10,125 25 252 -1472
2020-01-16 08:10:03 GMT 68.576477 31.835239 10,300 6 250 -1088
2020-01-16 08:09:53 GMT 68.564789 31.835495 10,475 349 250 -1152
2020-01-16 08:09:42 GMT 68.553772 31.844263 10,675 340 251 -960
2020-01-16 08:09:32 GMT 68.542023 31.856232 10,850 340 256 -960
2020-01-16 08:09:21 GMT 68.530472 31.868069 11,025 340 261 -1024
2020-01-16 08:09:11 GMT 68.519165 31.879440 11,200 340 264 -1088
2020-01-16 08:09:02 GMT 68.507721 31.891218 11,350 340 268 -1024
2020-01-16 08:08:51 GMT 68.495377 31.903748 11,575 340 272 -1344
2020-01-16 08:08:40 GMT 68.483093 31.916382 11,825 340 274 -1536
2020-01-16 08:08:31 GMT 68.471359 31.928329 12,075 340 274 -1536
2020-01-16 08:08:21 GMT 68.459106 31.940786 12,325 340 275 -1536
2020-01-16 08:08:10 GMT 68.447060 31.953049 12,575 340 275 -1536
2020-01-16 08:08:00 GMT 68.434677 31.965546 12,850 340 275 -1536
2020-01-16 08:07:49 GMT 68.422668 31.977671 13,100 340 276 -1472
2020-01-16 08:07:40 GMT 68.410141 31.990356 13,350 340 276 -1472
2020-01-16 08:07:29 GMT 68.398132 32.002426 13,600 340 276 -1408
2020-01-16 08:07:19 GMT 68.385979 32.014812 13,850 340 276 -1408
2020-01-16 08:07:08 GMT 68.373322 32.027630 14,125 340 277 -1408
2020-01-16 08:06:59 GMT 68.361450 32.039532 14,300 340 279 -576
2020-01-16 08:06:49 GMT 68.348930 32.052090 14,375 340 283 -512
2020-01-16 08:06:38 GMT 68.336746 32.064346 14,475 340 289 -640
2020-01-16 08:06:28 GMT 68.323471 32.077705 14,575 340 296 -704
2020-01-16 08:06:17 GMT 68.309875 32.091190 14,700 340 300 -640
2020-01-16 08:06:08 GMT 68.296875 32.104172 14,825 340 300 -1024
2020-01-16 08:05:57 GMT 68.283424 32.117485 15,025 340 299 -1024
2020-01-16 08:05:47 GMT 68.270187 32.130516 15,175 340 298 -1024
2020-01-16 08:05:37 GMT 68.257141 32.143375 15,350 340 299 -1024
2020-01-16 08:05:27 GMT 68.243858 32.156719 15,525 340 300 -1024
2020-01-16 08:05:16 GMT 68.230453 32.170059 15,700 340 301 -1024
2020-01-16 08:05:06 GMT 68.216995 32.183449 15,875 340 301 -1024
2020-01-16 08:04:56 GMT 68.204010 32.196350 16,050 340 302 -1024
2020-01-16 08:04:45 GMT 68.190277 32.210083 16,250 340 302 -1024
2020-01-16 08:04:36 GMT 68.177170 32.223148 16,425 340 302 -1088
2020-01-16 08:04:25 GMT 68.164116 32.236111 16,575 340 303 -1024
2020-01-16 08:04:15 GMT 68.149933 32.249992 16,775 340 305 -1024
2020-01-16 08:04:04 GMT 68.136742 32.262920 16,950 341 307 -1088
2020-01-16 08:03:55 GMT 68.122589 32.276653 17,150 341 308 -1024
2020-01-16 08:03:44 GMT 68.109467 32.289318 17,325 341 307 -1088
2020-01-16 08:03:34 GMT 68.096008 32.302425 17,500 341 307 -1152
2020-01-16 08:03:23 GMT 68.081772 32.316284 17,725 340 306 -1152
2020-01-16 08:03:14 GMT 68.068634 32.329144 17,900 340 305 -1024
2020-01-16 08:03:03 GMT 68.054443 32.343124 18,075 340 309 -1536
2020-01-16 08:02:53 GMT 68.041451 32.356045 18,375 340 312 -2176
2020-01-16 08:02:43 GMT 68.027435 32.369907 18,750 340 312 -2304
2020-01-16 08:02:32 GMT 68.013702 32.383450 19,150 340 312 -2048
2020-01-16 08:02:22 GMT 67.999695 32.397243 19,425 340 314 -1280
2020-01-16 08:02:12 GMT 67.985413 32.410667 19,625 343 315 -896
2020-01-16 08:02:01 GMT 67.971222 32.421402 19,725 345 316 -448
2020-01-16 08:01:52 GMT 67.957146 32.431511 19,800 345 317 -512
2020-01-16 08:01:41 GMT 67.942337 32.442104 19,875 345 318 -448
2020-01-16 08:01:31 GMT 67.927963 32.452366 19,950 345 318 -512
2020-01-16 08:01:21 GMT 67.913864 32.462479 20,050 345 318 -512
2020-01-16 08:01:11 GMT 67.899307 32.472965 20,150 345 318 -512
2020-01-16 08:01:01 GMT 67.884850 32.483303 20,225 346 317 -512
2020-01-16 08:00:50 GMT 67.869995 32.493896 20,325 346 317 -512
2020-01-16 08:00:40 GMT 67.855843 32.503967 20,400 346 317 -512
2020-01-16 08:00:29 GMT 67.841133 32.514301 20,500 346 318 -576
2020-01-16 08:00:20 GMT 67.826241 32.524761 20,600 346 318 -512
2020-01-16 08:00:09 GMT 67.812042 32.534702 20,675 346 318 -448
2020-01-16 07:59:59 GMT 67.797363 32.544998 20,750 346 317 -448
2020-01-16 07:59:49 GMT 67.783310 32.554863 20,825 346 318 -576
2020-01-16 07:59:39 GMT 67.768417 32.565437 20,950 346 321 -896
2020-01-16 07:59:28 GMT 67.753326 32.576084 21,100 346 326 -896
2020-01-16 07:59:18 GMT 67.739090 32.586102 21,250 345 331 -832
2020-01-16 07:59:08 GMT 67.723297 32.597183 21,400 346 337 -832
2020-01-16 07:58:57 GMT 67.708366 32.607552 21,525 346 344 -960
2020-01-16 07:58:46 GMT 67.690933 32.619656 21,700 346 352 -1024
2020-01-16 07:58:37 GMT 67.675827 32.630142 21,850 346 360 -1024
2020-01-16 07:58:26 GMT 67.658882 32.642082 22,000 346 366 -128
2020-01-16 07:58:16 GMT 67.642357 32.653591 22,000 346 366 0
2020-01-16 07:58:06 GMT 67.623642 32.666538 22,000 346 366 0
2020-01-16 07:57:56 GMT 67.609261 32.676479 22,000 346 366 0
We lost coverage of the aircraft here for a total of 27 minutes
2020-01-16 07:30:37 GMT 64.896194 34.451408 22,450 7 390 -448
2020-01-16 07:30:26 GMT 64.877930 34.444996 22,525 9 390 -448
2020-01-16 07:30:16 GMT 64.859604 34.436646 22,600 12 392 -384
2020-01-16 07:30:05 GMT 64.840981 34.426117 22,675 14 392 -448
2020-01-16 07:29:56 GMT 64.824646 34.415661 22,725 15 392 -576
2020-01-16 07:29:45 GMT 64.806107 34.403797 22,850 15 394 -704
2020-01-16 07:29:36 GMT 64.788666 34.392811 22,975 15 395 -512
2020-01-16 07:29:25 GMT 64.770538 34.381275 23,000 15 395 0
2020-01-16 07:29:15 GMT 64.753143 34.370289 23,000 15 394 64
2020-01-16 07:29:05 GMT 64.735062 34.358864 23,000 15 394 0
2020-01-16 07:28:54 GMT 64.716980 34.347439 23,000 15 394 0
2020-01-16 07:28:45 GMT 64.699585 34.336449 23,000 15 394 0
2020-01-16 07:28:35 GMT 64.681030 34.324722 23,000 15 395 0
2020-01-16 07:28:24 GMT 64.663620 34.313850 23,000 15 395 64
2020-01-16 07:28:14 GMT 64.646072 34.302834 23,000 14 395 0
2020-01-16 07:28:04 GMT 64.627625 34.291294 23,000 14 395 0
2020-01-16 07:27:53 GMT 64.609428 34.279976 23,000 14 394 0
2020-01-16 07:27:43 GMT 64.591278 34.268665 23,000 15 393 0
2020-01-16 07:27:34 GMT 64.574608 34.258232 23,000 15 392 0
2020-01-16 07:27:23 GMT 64.556534 34.247021 23,000 15 392 0
2020-01-16 07:27:13 GMT 64.539185 34.236145 23,000 15 393 0
2020-01-16 07:27:03 GMT 64.520752 34.224701 23,000 15 393 0
2020-01-16 07:26:52 GMT 64.502502 34.213371 23,000 14 394 0
2020-01-16 07:26:42 GMT 64.485512 34.202843 23,000 14 394 0
2020-01-16 07:26:32 GMT 64.467865 34.191978 23,000 14 394 0
2020-01-16 07:26:22 GMT 64.449852 34.180870 23,000 14 394 0
2020-01-16 07:26:12 GMT 64.431839 34.169788 23,000 14 395 0
2020-01-16 07:26:02 GMT 64.413666 34.158691 23,000 14 396 -64
2020-01-16 07:25:52 GMT 64.396080 34.147911 23,000 14 396 0
2020-01-16 07:25:42 GMT 64.378250 34.136925 23,000 14 397 0
2020-01-16 07:25:32 GMT 64.360565 34.126053 23,000 14 396 0
2020-01-16 07:25:22 GMT 64.342033 34.114723 23,000 14 396 0
2020-01-16 07:25:11 GMT 64.324203 34.103737 23,000 14 396 64
2020-01-16 07:25:01 GMT 64.306458 34.092884 23,000 14 396 0
2020-01-16 07:24:51 GMT 64.288605 34.082008 23,000 14 397 0
2020-01-16 07:24:41 GMT 64.270622 34.071121 23,000 14 397 0
2020-01-16 07:24:30 GMT 64.252235 34.059925 23,000 14 397 0
2020-01-16 07:24:20 GMT 64.234360 34.049049 23,000 14 398 0
2020-01-16 07:24:10 GMT 64.216690 34.038284 23,000 14 399 0
2020-01-16 07:24:00 GMT 64.198380 34.027195 23,000 14 399 0
2020-01-16 07:23:50 GMT 64.179886 34.015995 23,000 14 399 0
2020-01-16 07:23:40 GMT 64.162209 34.005211 23,000 14 399 0
2020-01-16 07:23:30 GMT 64.144318 33.994339 23,000 14 399 0
2020-01-16 07:23:20 GMT 64.125755 33.983021 23,000 14 398 0
2020-01-16 07:23:09 GMT 64.108292 33.972366 23,000 14 397 64
2020-01-16 07:22:59 GMT 64.090256 33.961487 23,000 14 396 0
2020-01-16 07:22:49 GMT 64.071716 33.950184 23,000 14 396 0
2020-01-16 07:22:39 GMT 64.054138 33.939514 23,000 14 395 64
2020-01-16 07:22:28 GMT 64.036148 33.928738 23,000 14 396 0
2020-01-16 07:22:19 GMT 64.017616 33.917763 23,000 14 398 0
2020-01-16 07:22:08 GMT 64.000061 33.907326 23,000 14 397 0
2020-01-16 07:21:58 GMT 63.981445 33.896309 23,000 14 398 0
2020-01-16 07:21:48 GMT 63.963684 33.885746 23,000 14 399 0
2020-01-16 07:21:38 GMT 63.945831 33.875179 23,000 14 400 0
2020-01-16 07:21:28 GMT 63.927486 33.864368 23,000 14 400 0
2020-01-16 07:21:17 GMT 63.909668 33.853947 23,000 14 400 0
2020-01-16 07:21:07 GMT 63.890617 33.842724 23,000 14 400 0
2020-01-16 07:20:57 GMT 63.873047 33.832397 23,000 14 400 -64
2020-01-16 07:20:47 GMT 63.855099 33.821960 23,000 14 398 0
2020-01-16 07:20:37 GMT 63.836838 33.811375 23,000 14 396 0
2020-01-16 07:20:27 GMT 63.818462 33.800648 23,000 14 397 0
2020-01-16 07:20:16 GMT 63.800167 33.789989 23,000 14 398 -64
2020-01-16 07:20:06 GMT 63.782318 33.779579 23,000 14 399 0
2020-01-16 07:19:56 GMT 63.764603 33.769333 23,000 14 399 0
2020-01-16 07:19:46 GMT 63.746567 33.758766 23,000 14 401 -64
2020-01-16 07:19:35 GMT 63.728012 33.748020 23,000 14 400 64
2020-01-16 07:19:26 GMT 63.709251 33.737144 23,000 14 400 -64
2020-01-16 07:19:15 GMT 63.691330 33.726707 23,000 14 401 0
2020-01-16 07:19:05 GMT 63.673172 33.716164 23,000 14 402 0
2020-01-16 07:18:55 GMT 63.655243 33.705845 23,000 14 404 0
2020-01-16 07:18:44 GMT 63.636108 33.694752 23,000 14 405 64
2020-01-16 07:18:34 GMT 63.617935 33.684189 23,000 14 407 0
2020-01-16 07:18:25 GMT 63.599854 33.673836 23,000 14 408 0
2020-01-16 07:18:14 GMT 63.581451 33.663273 23,000 14 408 0
2020-01-16 07:18:04 GMT 63.562889 33.652550 23,000 14 408 0
2020-01-16 07:17:54 GMT 63.543758 33.641563 23,000 14 408 0
2020-01-16 07:17:44 GMT 63.525509 33.631126 23,000 14 407 0
2020-01-16 07:17:33 GMT 63.506836 33.620487 23,000 14 406 0
2020-01-16 07:17:23 GMT 63.488480 33.609924 23,000 14 406 0
2020-01-16 07:17:13 GMT 63.469574 33.599148 23,000 14 407 0
2020-01-16 07:17:03 GMT 63.451721 33.589008 23,000 14 408 0
2020-01-16 07:16:53 GMT 63.433273 33.578655 23,000 14 408 0
2020-01-16 07:16:43 GMT 63.414459 33.567879 23,000 14 409 0
2020-01-16 07:16:33 GMT 63.396049 33.557522 23,000 14 410 0
2020-01-16 07:16:23 GMT 63.377148 33.546753 23,000 14 410 64
2020-01-16 07:16:12 GMT 63.358063 33.535988 23,000 14 410 64
2020-01-16 07:16:02 GMT 63.339294 33.525307 23,000 14 409 0
2020-01-16 07:15:52 GMT 63.321098 33.515003 23,000 14 408 0
2020-01-16 07:15:41 GMT 63.302338 33.504345 23,000 14 407 -64
2020-01-16 07:15:32 GMT 63.283440 33.493580 23,000 14 406 0
2020-01-16 07:15:21 GMT 63.264912 33.483032 23,000 14 407 64
2020-01-16 07:15:11 GMT 63.246849 33.472816 23,000 14 408 64
2020-01-16 07:15:01 GMT 63.228104 33.462135 23,000 14 409 0
2020-01-16 07:14:51 GMT 63.209793 33.451786 23,000 14 410 0
2020-01-16 07:14:41 GMT 63.191254 33.441265 23,000 14 411 0
2020-01-16 07:14:31 GMT 63.172119 33.430279 23,000 14 413 0
2020-01-16 07:14:20 GMT 63.153305 33.419598 23,000 14 414 0
2020-01-16 07:14:10 GMT 63.134949 33.409119 23,000 14 415 64
2020-01-16 07:14:00 GMT 63.115311 33.397930 23,000 14 415 0
2020-01-16 07:13:50 GMT 63.096725 33.387554 23,000 14 415 -64
2020-01-16 07:13:39 GMT 63.077820 33.376972 23,025 14 414 -64
2020-01-16 07:13:30 GMT 63.059464 33.366901 23,000 13 413 0
2020-01-16 07:13:19 GMT 63.040436 33.356499 23,000 13 416 128
2020-01-16 07:13:09 GMT 63.021194 33.345947 23,000 13 418 -64
2020-01-16 07:12:59 GMT 63.002472 33.335674 23,000 14 417 64
2020-01-16 07:12:48 GMT 62.982880 33.324688 23,000 14 418 0
2020-01-16 07:12:42 GMT 62.970886 33.318073 23,000 14 420 64
2020-01-16 07:12:38 GMT 62.964111 33.314312 23,000 14 420 0
2020-01-16 07:12:34 GMT 62.955643 33.309631 23,000 14 420 0
2020-01-16 07:12:29 GMT 62.945480 33.304035 23,000 14 420 0
2020-01-16 07:12:24 GMT 62.935040 33.298187 23,000 14 420 64
2020-01-16 07:12:18 GMT 62.926117 33.293255 23,000 14 420 0
2020-01-16 07:12:14 GMT 62.917099 33.288269 23,000 14 420 64
2020-01-16 07:12:08 GMT 62.906342 33.282368 23,000 14 420 0
2020-01-16 07:12:03 GMT 62.897873 33.277691 23,000 14 420 0
2020-01-16 07:11:58 GMT 62.887978 33.272202 23,000 14 420 0
2020-01-16 07:11:53 GMT 62.879177 33.267342 23,000 14 420 0
2020-01-16 07:11:48 GMT 62.868713 33.261616 23,000 14 420 0
2020-01-16 07:11:43 GMT 62.859879 33.256836 23,000 14 420 -64
2020-01-16 07:11:37 GMT 62.849060 33.250862 23,000 14 420 0
2020-01-16 07:11:33 GMT 62.841145 33.246529 23,000 14 420 0
2020-01-16 07:11:28 GMT 62.830170 33.240459 23,000 14 419 64
2020-01-16 07:11:22 GMT 62.820557 33.235271 23,000 14 419 64
2020-01-16 07:11:17 GMT 62.810806 33.229877 23,000 14 420 0
2020-01-16 07:11:13 GMT 62.802521 33.225403 23,000 14 421 0
2020-01-16 07:11:07 GMT 62.791847 33.219486 23,000 14 421 0
2020-01-16 07:11:03 GMT 62.782955 33.214733 23,000 13 422 -64
2020-01-16 07:10:57 GMT 62.772945 33.209240 23,000 13 422 -64
2020-01-16 07:10:52 GMT 62.763123 33.203854 23,000 14 421 0
2020-01-16 07:10:46 GMT 62.753448 33.198650 23,000 14 421 64
2020-01-16 07:10:36 GMT 62.734726 33.188431 23,000 14 420 0
2020-01-16 07:10:27 GMT 62.714996 33.177692 23,000 14 421 -64
2020-01-16 07:10:16 GMT 62.696461 33.167618 23,000 14 420 0
2020-01-16 07:10:06 GMT 62.677094 33.157162 23,000 14 420 0
2020-01-16 07:09:56 GMT 62.657959 33.146870 23,000 14 420 0
2020-01-16 07:09:45 GMT 62.638412 33.136292 23,000 14 420 0
2020-01-16 07:09:40 GMT 62.625889 33.129482 23,000 14 421 0
2020-01-16 07:09:36 GMT 62.619137 33.125786 23,000 14 421 0
2020-01-16 07:09:29 GMT 62.607330 33.119404 23,000 14 421 0
2020-01-16 07:09:25 GMT 62.600426 33.115749 23,000 14 421 0
2020-01-16 07:09:15 GMT 62.580688 33.105061 23,000 13 423 0
2020-01-16 07:09:05 GMT 62.561371 33.094788 23,000 13 423 0
2020-01-16 07:08:54 GMT 62.541954 33.084377 23,000 13 422 -64
2020-01-16 07:08:44 GMT 62.523148 33.074341 23,025 13 418 0
2020-01-16 07:08:35 GMT 62.504425 33.064373 23,000 13 415 0
2020-01-16 07:08:24 GMT 62.484741 33.053791 23,000 13 416 0
2020-01-16 07:08:14 GMT 62.466110 33.043823 23,000 13 417 0
2020-01-16 07:08:04 GMT 62.447361 33.033775 23,000 13 417 0
2020-01-16 07:07:53 GMT 62.428619 33.023884 23,000 13 415 64
2020-01-16 07:07:44 GMT 62.409142 33.013599 23,000 13 414 0
2020-01-16 07:07:33 GMT 62.390305 33.003540 23,000 13 414 0
2020-01-16 07:07:23 GMT 62.371574 32.993740 23,000 13 414 0
2020-01-16 07:07:13 GMT 62.353088 32.983906 23,000 13 414 0
2020-01-16 07:07:02 GMT 62.333492 32.973560 23,000 13 415 0
2020-01-16 07:06:52 GMT 62.314636 32.963562 23,000 13 416 -64
2020-01-16 07:06:43 GMT 62.295738 32.953491 23,000 13 417 64
2020-01-16 07:06:32 GMT 62.276413 32.943218 23,000 14 417 0
2020-01-16 07:06:22 GMT 62.257797 32.933315 23,000 14 417 0
2020-01-16 07:06:12 GMT 62.239132 32.923386 23,000 14 416 0
2020-01-16 07:06:01 GMT 62.219879 32.913006 23,000 14 415 0
2020-01-16 07:05:51 GMT 62.201191 32.902996 23,000 13 414 -128
2020-01-16 07:05:42 GMT 62.182205 32.893066 23,025 13 413 128
2020-01-16 07:05:31 GMT 62.163811 32.883453 23,000 13 413 64
2020-01-16 07:05:21 GMT 62.144909 32.873524 23,000 13 412 0
2020-01-16 07:05:11 GMT 62.125683 32.863464 22,975 13 414 0
2020-01-16 07:05:01 GMT 62.107224 32.853928 22,975 13 412 192
2020-01-16 07:04:50 GMT 62.088161 32.844036 22,850 13 410 1024
2020-01-16 07:04:41 GMT 62.069550 32.834408 22,675 13 407 1088
2020-01-16 07:04:30 GMT 62.050552 32.824596 22,500 13 406 960
2020-01-16 07:04:19 GMT 62.031784 32.814888 22,325 13 405 896
2020-01-16 07:04:09 GMT 62.013680 32.805584 22,175 13 405 896
2020-01-16 07:04:00 GMT 61.995346 32.796150 22,025 13 403 960
2020-01-16 07:03:49 GMT 61.976669 32.786457 21,850 13 401 1088
2020-01-16 07:03:39 GMT 61.958561 32.777100 21,675 13 398 1024
2020-01-16 07:03:29 GMT 61.940414 32.767803 21,500 13 398 896
2020-01-16 07:03:19 GMT 61.922745 32.758778 21,350 13 398 896
2020-01-16 07:03:09 GMT 61.904469 32.749432 21,200 13 395 960
2020-01-16 07:02:58 GMT 61.885849 32.739944 21,025 13 390 1024
2020-01-16 07:02:48 GMT 61.868546 32.731117 20,850 13 387 1024
2020-01-16 07:02:38 GMT 61.850830 32.722092 20,675 13 387 960
2020-01-16 07:02:27 GMT 61.832638 32.712811 20,500 13 386 960
2020-01-16 07:02:18 GMT 61.815460 32.704060 20,350 13 386 1024
2020-01-16 07:02:08 GMT 61.797302 32.694805 20,175 13 385 960
2020-01-16 07:01:57 GMT 61.779922 32.685993 20,025 13 384 512
2020-01-16 07:01:47 GMT 61.762764 32.677204 20,000 13 385 64
2020-01-16 07:01:37 GMT 61.745117 32.668152 20,000 13 385 0
2020-01-16 07:01:26 GMT 61.726871 32.658794 20,000 13 386 0
2020-01-16 07:01:16 GMT 61.708996 32.649738 20,000 13 387 0
2020-01-16 07:01:07 GMT 61.692142 32.641296 20,000 13 388 0
2020-01-16 07:00:56 GMT 61.673801 32.632038 20,000 13 387 0
2020-01-16 07:00:46 GMT 61.656437 32.623394 20,000 13 387 0
2020-01-16 07:00:36 GMT 61.639118 32.614643 20,000 13 386 0
2020-01-16 07:00:25 GMT 61.621059 32.605694 20,000 13 386 64
2020-01-16 07:00:15 GMT 61.603775 32.597023 20,000 13 387 0
2020-01-16 07:00:06 GMT 61.585678 32.587994 20,000 13 387 0
2020-01-16 06:59:55 GMT 61.568298 32.579269 20,000 13 387 0
2020-01-16 06:59:45 GMT 61.550995 32.570599 20,000 13 388 0
2020-01-16 06:59:35 GMT 61.532959 32.561611 20,000 13 389 0
2020-01-16 06:59:24 GMT 61.514824 32.552490 20,000 13 391 0
2020-01-16 06:59:14 GMT 61.497231 32.543640 20,000 13 393 -64
2020-01-16 06:59:05 GMT 61.478714 32.534245 20,000 13 395 64
2020-01-16 06:58:54 GMT 61.461502 32.525612 20,000 13 397 0
2020-01-16 06:58:44 GMT 61.442715 32.516277 20,000 13 398 0
2020-01-16 06:58:34 GMT 61.424377 32.507172 20,000 13 396 0
2020-01-16 06:58:24 GMT 61.407059 32.498577 20,000 13 394 0
2020-01-16 06:58:14 GMT 61.388947 32.489613 20,000 13 394 0
2020-01-16 06:58:04 GMT 61.370361 32.480392 20,000 13 393 0
2020-01-16 06:57:53 GMT 61.353195 32.471859 20,000 13 394 0
2020-01-16 06:57:43 GMT 61.334717 32.462666 20,000 13 394 0
2020-01-16 06:57:33 GMT 61.317024 32.454021 20,000 13 393 0
2020-01-16 06:57:23 GMT 61.299271 32.445274 20,000 13 393 -64
2020-01-16 06:57:13 GMT 61.281319 32.436626 20,000 12 392 0
2020-01-16 06:57:02 GMT 61.262791 32.427776 20,000 12 392 64
2020-01-16 06:56:52 GMT 61.244888 32.418987 20,000 14 394 0
2020-01-16 06:56:42 GMT 61.227413 32.408955 20,000 16 397 0
2020-01-16 06:56:32 GMT 61.209721 32.397358 20,000 18 400 0
2020-01-16 06:56:22 GMT 61.191566 32.383930 20,000 20 402 0
2020-01-16 06:56:11 GMT 61.173828 32.368977 20,000 23 404 -64
2020-01-16 06:56:01 GMT 61.156933 32.353210 20,000 25 405 0
2020-01-16 06:55:51 GMT 61.140015 32.336296 20,000 25 404 0
2020-01-16 06:55:41 GMT 61.122482 32.318726 20,000 25 403 0
2020-01-16 06:55:31 GMT 61.105820 32.301964 20,000 25 403 0
2020-01-16 06:55:21 GMT 61.088516 32.284698 20,000 25 404 0
2020-01-16 06:55:10 GMT 61.071396 32.267532 20,000 25 405 0
2020-01-16 06:55:00 GMT 61.054413 32.250465 20,000 25 405 0
2020-01-16 06:54:51 GMT 61.036781 32.232807 20,000 25 405 64
2020-01-16 06:54:40 GMT 61.019604 32.215740 20,000 25 405 0
2020-01-16 06:54:29 GMT 61.002098 32.198280 20,000 25 405 0
2020-01-16 06:54:19 GMT 60.985336 32.181606 20,000 25 405 0
2020-01-16 06:54:10 GMT 60.968628 32.164928 20,000 25 404 0
2020-01-16 06:53:59 GMT 60.950985 32.147369 20,000 25 405 0
2020-01-16 06:53:49 GMT 60.934132 32.130695 20,000 25 406 0
2020-01-16 06:53:39 GMT 60.916809 32.113510 20,000 25 406 0
2020-01-16 06:53:29 GMT 60.900009 32.096951 20,000 25 407 0
2020-01-16 06:53:18 GMT 60.881973 32.079132 20,000 25 407 -64
2020-01-16 06:53:09 GMT 60.865330 32.062717 20,000 25 406 -64
2020-01-16 06:52:58 GMT 60.848328 32.045982 20,000 25 406 0
2020-01-16 06:52:48 GMT 60.831020 32.028873 20,000 25 407 64
2020-01-16 06:52:42 GMT 60.821274 32.019276 20,000 25 407 0
2020-01-16 06:52:38 GMT 60.814133 32.012264 20,000 25 408 0
2020-01-16 06:52:32 GMT 60.804718 32.002979 20,000 25 409 0
2020-01-16 06:52:28 GMT 60.796829 31.995218 20,000 25 409 0
2020-01-16 06:52:22 GMT 60.787865 31.986401 20,000 25 409 0
2020-01-16 06:52:17 GMT 60.778881 31.977571 20,000 25 409 64
2020-01-16 06:52:12 GMT 60.770828 31.969725 19,975 25 409 256
2020-01-16 06:52:08 GMT 60.761982 31.960995 19,950 25 409 512
2020-01-16 06:52:02 GMT 60.753067 31.952221 19,900 25 409 960
2020-01-16 06:51:57 GMT 60.744804 31.944122 19,825 25 408 1152
2020-01-16 06:51:51 GMT 60.735214 31.934698 19,700 25 408 1088
2020-01-16 06:51:47 GMT 60.727249 31.926838 19,625 25 408 1024
2020-01-16 06:51:41 GMT 60.717407 31.917177 19,525 25 409 768
2020-01-16 06:51:37 GMT 60.710403 31.910263 19,450 25 411 832
2020-01-16 06:51:32 GMT 60.701557 31.901648 19,375 25 416 576
2020-01-16 06:51:26 GMT 60.692047 31.892363 19,325 25 419 896
2020-01-16 06:51:21 GMT 60.683308 31.883894 19,275 25 415 1024
2020-01-16 06:51:16 GMT 60.674561 31.875505 19,175 25 412 960
2020-01-16 06:51:11 GMT 60.665359 31.866602 19,100 25 407 1024
2020-01-16 06:51:06 GMT 60.657715 31.859119 19,025 25 404 1024
2020-01-16 06:51:01 GMT 60.648651 31.850407 18,925 25 400 1152
2020-01-16 06:50:56 GMT 60.640854 31.842892 18,825 25 397 1344
2020-01-16 06:50:51 GMT 60.632336 31.834553 18,725 25 394 1408
2020-01-16 06:50:46 GMT 60.624207 31.826731 18,575 25 392 1792
2020-01-16 06:50:40 GMT 60.614971 31.817780 18,400 25 390 2112
2020-01-16 06:50:36 GMT 60.607334 31.810326 18,225 25 390 2368
2020-01-16 06:50:29 GMT 60.596630 31.799927 17,975 25 390 2304
2020-01-16 06:50:25 GMT 60.590057 31.793581 17,825 25 389 2112
2020-01-16 06:50:20 GMT 60.582458 31.786289 17,675 25 387 1920
2020-01-16 06:50:16 GMT 60.573818 31.777954 17,500 25 386 1984
2020-01-16 06:50:10 GMT 60.566231 31.770597 17,325 25 385 2048
2020-01-16 06:50:05 GMT 60.557693 31.762423 17,150 25 382 1984
2020-01-16 06:50:00 GMT 60.549797 31.754805 17,000 25 381 1984
2020-01-16 06:49:55 GMT 60.541122 31.746416 16,800 25 379 2048
2020-01-16 06:49:48 GMT 60.531132 31.736755 16,600 25 378 1920
2020-01-16 06:49:44 GMT 60.524845 31.730772 16,475 25 375 1856
2020-01-16 06:49:38 GMT 60.514893 31.721224 16,300 25 372 2048
2020-01-16 06:49:34 GMT 60.509171 31.715635 16,150 25 370 2176
2020-01-16 06:49:30 GMT 60.502075 31.708817 15,975 25 369 2560
2020-01-16 06:49:25 GMT 60.493881 31.700954 15,750 25 369 2624
2020-01-16 06:49:19 GMT 60.486511 31.693851 15,550 25 369 2240
2020-01-16 06:49:14 GMT 60.477779 31.685453 15,350 25 368 1920
2020-01-16 06:49:09 GMT 60.471077 31.678980 15,225 25 366 1536
2020-01-16 06:49:04 GMT 60.462433 31.670744 15,100 25 365 960
2020-01-16 06:48:54 GMT 60.446915 31.655872 15,000 25 365 128
2020-01-16 06:48:49 GMT 60.439701 31.648865 15,000 25 365 0
2020-01-16 06:48:44 GMT 60.431534 31.641100 15,000 25 366 0
2020-01-16 06:48:38 GMT 60.422756 31.632681 15,000 25 366 0
2020-01-16 06:48:33 GMT 60.415775 31.626009 15,000 25 366 0
2020-01-16 06:48:27 GMT 60.406998 31.617516 15,000 25 366 -64
2020-01-16 06:48:24 GMT 60.400726 31.611549 15,000 25 365 0
2020-01-16 06:48:13 GMT 60.385098 31.596680 15,000 25 365 0
2020-01-16 06:48:03 GMT 60.369129 31.581474 15,000 25 365 0
2020-01-16 06:47:57 GMT 60.360146 31.572844 15,000 25 365 0
2020-01-16 06:47:53 GMT 60.354309 31.567225 15,000 25 365 0
2020-01-16 06:47:46 GMT 60.344193 31.557659 15,000 25 365 0
2020-01-16 06:47:42 GMT 60.338379 31.552166 15,000 25 366 64
2020-01-16 06:47:38 GMT 60.331421 31.545574 15,000 25 366 128
2020-01-16 06:47:32 GMT 60.322769 31.537296 14,975 25 366 448
2020-01-16 06:47:27 GMT 60.315445 31.530382 14,925 25 365 896
2020-01-16 06:47:23 GMT 60.307663 31.522997 14,825 25 364 1024
2020-01-16 06:47:17 GMT 60.300278 31.516048 14,750 25 364 1024
2020-01-16 06:47:12 GMT 60.292084 31.508299 14,650 25 363 1024
2020-01-16 06:47:07 GMT 60.284409 31.501022 14,575 25 362 1024
2020-01-16 06:47:02 GMT 60.276955 31.493977 14,500 25 361 960
2020-01-16 06:46:57 GMT 60.269348 31.486816 14,400 25 361 960
2020-01-16 06:46:52 GMT 60.261063 31.478954 14,325 24 360 960
2020-01-16 06:46:41 GMT 60.245346 31.464254 14,150 24 357 1280
2020-01-16 06:46:36 GMT 60.237247 31.456800 14,025 24 356 1344
2020-01-16 06:46:31 GMT 60.230164 31.450258 13,925 24 353 1408
2020-01-16 06:46:21 GMT 60.215515 31.436810 13,675 24 344 1472
2020-01-16 06:46:15 GMT 60.207733 31.429707 13,550 24 340 1536
2020-01-16 06:46:10 GMT 60.200283 31.422859 13,400 24 336 1600
2020-01-16 06:46:05 GMT 60.192490 31.415785 13,250 24 331 1792
2020-01-16 06:46:00 GMT 60.186356 31.410103 13,100 24 329 2048
2020-01-16 06:45:53 GMT 60.175842 31.400396 12,850 24 326 1984
2020-01-16 06:45:45 GMT 60.166031 31.391254 12,625 25 321 2048
2020-01-16 06:45:35 GMT 60.152802 31.378620 12,275 25 316 2048
2020-01-16 06:45:25 GMT 60.139626 31.365870 11,925 25 315 1984
2020-01-16 06:45:14 GMT 60.125153 31.353086 11,575 20 311 1920
We lost coverage of the aircraft here for a total of 5 minutes
2020-01-16 06:39:45 GMT 60.210804 31.813366 10,000 233 223 64
2020-01-16 06:39:36 GMT 60.216431 31.827961 10,000 233 223 64
2020-01-16 06:39:20 GMT 60.227188 31.856232 9,975 233 232 -128
2020-01-16 06:39:14 GMT 60.230591 31.865158 10,000 233 235 64
2020-01-16 06:39:02 GMT 60.238316 31.885464 10,000 233 235 0
2020-01-16 06:38:54 GMT 60.243855 31.900177 10,000 233 234 0
2020-01-16 06:38:44 GMT 60.250626 31.917934 10,000 233 232 0
2020-01-16 06:38:34 GMT 60.257172 31.935196 10,000 233 231 0
2020-01-16 06:38:23 GMT 60.264011 31.953049 10,000 233 232 0
2020-01-16 06:38:14 GMT 60.270813 31.970688 10,000 233 232 0
2020-01-16 06:38:03 GMT 60.277328 31.987871 10,000 233 231 0
2020-01-16 06:37:52 GMT 60.283997 32.005257 10,000 233 231 0
2020-01-16 06:37:42 GMT 60.290501 32.022106 10,000 233 231 0
2020-01-16 06:37:32 GMT 60.297134 32.039352 10,000 232 232 0
2020-01-16 06:37:23 GMT 60.304001 32.057064 10,000 232 232 -64
2020-01-16 06:37:12 GMT 60.310566 32.073997 10,000 232 233 0
2020-01-16 06:37:02 GMT 60.317184 32.091064 10,000 232 233 0
2020-01-16 06:36:51 GMT 60.324253 32.109211 10,000 233 235 0
2020-01-16 06:36:42 GMT 60.330734 32.126392 10,000 233 235 0
2020-01-16 06:36:31 GMT 60.337566 32.144817 10,000 234 235 0
2020-01-16 06:36:22 GMT 60.344009 32.161716 10,000 228 237 0
2020-01-16 06:36:11 GMT 60.352276 32.177189 10,000 217 240 0
2020-01-16 06:36:01 GMT 60.363075 32.190628 10,000 207 243 0
2020-01-16 06:35:50 GMT 60.373409 32.200829 10,000 206 244 0
2020-01-16 06:35:40 GMT 60.383465 32.210735 10,000 206 244 0
2020-01-16 06:35:29 GMT 60.394218 32.221333 10,000 206 244 0
2020-01-16 06:35:20 GMT 60.404369 32.231239 10,000 206 244 0
2020-01-16 06:35:09 GMT 60.414749 32.241245 10,000 206 244 0
2020-01-16 06:34:59 GMT 60.424850 32.250759 10,000 205 243 0
2020-01-16 06:34:49 GMT 60.435326 32.260567 10,000 205 243 0
2020-01-16 06:34:38 GMT 60.445801 32.270378 10,000 205 242 0
2020-01-16 06:34:29 GMT 60.456070 32.279819 10,000 205 242 0
2020-01-16 06:34:18 GMT 60.466736 32.289577 10,000 205 242 0
2020-01-16 06:34:08 GMT 60.476898 32.298859 10,000 205 242 0
2020-01-16 06:33:58 GMT 60.487015 32.307949 10,000 205 240 0
2020-01-16 06:33:48 GMT 60.497498 32.317326 10,000 204 241 -64
2020-01-16 06:33:37 GMT 60.508163 32.326797 10,000 204 240 0
2020-01-16 06:33:27 GMT 60.518097 32.335510 10,000 204 242 0
2020-01-16 06:33:17 GMT 60.528671 32.344887 10,000 204 243 0
2020-01-16 06:33:07 GMT 60.539383 32.354359 10,000 204 243 0
2020-01-16 06:32:57 GMT 60.549706 32.363663 10,000 204 243 0
2020-01-16 06:32:47 GMT 60.559898 32.372883 10,000 205 244 0
2020-01-16 06:32:36 GMT 60.570652 32.382694 10,000 205 243 0
2020-01-16 06:32:26 GMT 60.580894 32.392109 10,000 205 243 64
2020-01-16 06:32:16 GMT 60.591476 32.401806 10,000 205 242 0
2020-01-16 06:32:06 GMT 60.601593 32.410995 10,000 205 243 0
2020-01-16 06:31:56 GMT 60.611893 32.420464 10,000 205 245 0
2020-01-16 06:31:46 GMT 60.622700 32.429974 10,000 203 250 0
2020-01-16 06:31:35 GMT 60.634243 32.437328 10,000 191 263 -64
2020-01-16 06:31:25 GMT 60.646957 32.437889 10,000 171 283 64
2020-01-16 06:31:16 GMT 60.659866 32.430786 9,975 155 307 0
2020-01-16 06:31:05 GMT 60.672775 32.415257 10,000 141 332 0
2020-01-16 06:30:54 GMT 60.684952 32.390160 10,025 127 354 -448
2020-01-16 06:30:44 GMT 60.693375 32.360893 10,150 114 372 -1024
2020-01-16 06:30:35 GMT 60.698532 32.328251 10,300 101 386 -1088
2020-01-16 06:30:24 GMT 60.700348 32.290291 10,500 88 401 -1216
2020-01-16 06:30:15 GMT 60.698021 32.250660 10,750 76 411 -1600
2020-01-16 06:30:04 GMT 60.692139 32.215607 11,125 64 413 -2688
2020-01-16 06:29:54 GMT 60.681839 32.180283 11,575 53 412 -2560
2020-01-16 06:29:43 GMT 60.668411 32.150604 12,050 40 408 -2944
2020-01-16 06:29:33 GMT 60.653282 32.126965 12,475 36 414 -2112
2020-01-16 06:29:23 GMT 60.637527 32.103756 12,900 35 425 -2752
2020-01-16 06:29:13 GMT 60.621323 32.080078 13,300 35 440 -2880
2020-01-16 06:29:02 GMT 60.603561 32.054600 13,900 35 449 -3904
2020-01-16 06:28:52 GMT 60.586388 32.029659 14,600 35 458 -4288
2020-01-16 06:28:42 GMT 60.569164 32.004448 15,375 35 463 -5184
2020-01-16 06:28:33 GMT 60.551788 31.978643 16,350 36 462 -6336
2020-01-16 06:28:29 GMT 60.546158 31.970119 16,700 36 462 -6272
2020-01-16 06:28:22 GMT 60.533646 31.950989 17,450 37 461 -6016
2020-01-16 06:28:18 GMT 60.527481 31.941423 17,800 37 460 -5696
2020-01-16 06:28:12 GMT 60.516605 31.924700 18,425 37 458 -5760
2020-01-16 06:28:08 GMT 60.511459 31.916800 18,700 37 458 -5632
2020-01-16 06:28:02 GMT 60.500126 31.899197 19,325 37 457 -5376
2020-01-16 06:27:59 GMT 60.495026 31.891228 19,600 37 457 -5184
2020-01-16 06:27:51 GMT 60.482483 31.871811 20,200 37 456 -4672
2020-01-16 06:27:48 GMT 60.477631 31.864328 20,425 37 456 -4608
2020-01-16 06:27:42 GMT 60.465683 31.845957 21,000 37 456 -4800
2020-01-16 06:27:38 GMT 60.459869 31.836958 21,275 37 455 -4736
2020-01-16 06:27:31 GMT 60.448471 31.819437 21,750 37 456 -3840
2020-01-16 06:27:27 GMT 60.442429 31.810249 21,975 36 454 -3712
2020-01-16 06:27:21 GMT 60.431507 31.794336 22,375 34 448 -3648
2020-01-16 06:27:18 GMT 60.426201 31.787174 22,550 33 445 -3520
2020-01-16 06:27:11 GMT 60.413727 31.771481 22,925 30 440 -2560
2020-01-16 06:27:07 GMT 60.408325 31.765167 23,050 29 439 -1984
2020-01-16 06:27:01 GMT 60.395966 31.752005 23,200 26 438 -1024
2020-01-16 06:26:58 GMT 60.390450 31.746468 23,250 26 438 -768
2020-01-16 06:26:50 GMT 60.377556 31.733715 23,325 26 440 -192
2020-01-16 06:26:46 GMT 60.369461 31.725580 23,325 26 440 -64
2020-01-16 06:26:41 GMT 60.358608 31.714882 23,325 26 440 128
2020-01-16 06:26:37 GMT 60.352661 31.709005 23,325 26 440 320
2020-01-16 06:26:30 GMT 60.340530 31.696978 23,250 26 435 1152
2020-01-16 06:26:27 GMT 60.334763 31.691296 23,200 26 434 1408
2020-01-16 06:26:17 GMT 60.316635 31.673204 22,900 26 432 1856
2020-01-16 06:26:09 GMT 60.302792 31.659458 22,675 26 431 1792
2020-01-16 06:26:06 GMT 60.298138 31.654848 22,600 26 431 1600
2020-01-16 06:26:00 GMT 60.285278 31.642046 22,425 26 429 1408
2020-01-16 06:25:56 GMT 60.280472 31.637310 22,350 26 427 1408
2020-01-16 06:25:49 GMT 60.267014 31.623957 22,175 26 425 1664
2020-01-16 06:25:46 GMT 60.262802 31.619789 22,100 26 424 1728
2020-01-16 06:25:39 GMT 60.249535 31.606783 21,875 26 423 1728
2020-01-16 06:25:36 GMT 60.245087 31.602362 21,800 25 422 1728
2020-01-16 06:25:29 GMT 60.231766 31.589388 21,600 25 419 1664
2020-01-16 06:25:26 GMT 60.226772 31.584517 21,525 25 419 1664
2020-01-16 06:25:16 GMT 60.209335 31.567699 21,225 25 416 1664
2020-01-16 06:25:06 GMT 60.191765 31.550968 20,925 25 413 1920
2020-01-16 06:24:59 GMT 60.178802 31.538433 20,675 25 413 1920
2020-01-16 06:24:55 GMT 60.173237 31.532921 20,600 27 415 1728
2020-01-16 06:24:48 GMT 60.161366 31.518599 20,400 37 422 1408
2020-01-16 06:24:45 GMT 60.157562 31.512957 20,350 38 421 1408
2020-01-16 06:24:38 GMT 60.146935 31.494173 20,175 45 425 1536
2020-01-16 06:24:35 GMT 60.142456 31.484543 20,100 49 427 1600
2020-01-16 06:24:28 GMT 60.133713 31.462097 19,900 55 428 1600
2020-01-16 06:24:25 GMT 60.130642 31.452681 19,825 57 427 1536
2020-01-16 06:24:15 GMT 60.120213 31.419329 19,625 58 422 1216
2020-01-16 06:24:08 GMT 60.112251 31.393532 19,400 58 419 1984
2020-01-16 06:24:04 GMT 60.109726 31.385477 19,325 58 418 2176
2020-01-16 06:23:57 GMT 60.102150 31.361061 19,025 58 418 2752
2020-01-16 06:23:54 GMT 60.099499 31.352528 18,900 58 418 2816
2020-01-16 06:23:44 GMT 60.088837 31.318295 18,425 58 420 2432
2020-01-16 06:23:37 GMT 60.081249 31.293966 18,175 58 420 1920
2020-01-16 06:23:34 GMT 60.078735 31.285843 18,100 58 419 1728
2020-01-16 06:23:27 GMT 60.070999 31.261028 17,900 58 415 1536
2020-01-16 06:23:24 GMT 60.068436 31.252884 17,825 57 415 1536
2020-01-16 06:23:14 GMT 60.058044 31.219641 17,575 57 409 1408
2020-01-16 06:23:07 GMT 60.050766 31.196342 17,400 57 404 1728
2020-01-16 06:23:04 GMT 60.048058 31.187635 17,325 58 404 1792
2020-01-16 06:22:56 GMT 60.040329 31.163013 17,075 57 401 2240
2020-01-16 06:22:53 GMT 60.037910 31.155266 16,975 58 400 2368
2020-01-16 06:22:43 GMT 60.028244 31.124363 16,550 57 401 2624
2020-01-16 06:22:36 GMT 60.020733 31.100431 16,225 57 400 2560
2020-01-16 06:22:33 GMT 60.018078 31.091995 16,100 57 400 2496
2020-01-16 06:22:23 GMT 60.007835 31.059526 15,675 57 400 2304
2020-01-16 06:22:12 GMT 59.997688 31.027550 15,325 57 397 1920
2020-01-16 06:22:03 GMT 59.988144 30.997435 15,025 57 392 1792
2020-01-16 06:21:52 GMT 59.978184 30.966143 14,700 57 388 1856
2020-01-16 06:21:41 GMT 59.967773 30.933428 14,400 57 382 1728
2020-01-16 06:21:32 GMT 59.959213 30.906246 14,100 57 376 2048
2020-01-16 06:21:22 GMT 59.949554 30.875519 13,725 58 373 2432
2020-01-16 06:21:12 GMT 59.940445 30.846039 13,325 58 370 2240
2020-01-16 06:21:01 GMT 59.931290 30.815826 12,900 59 367 2688
2020-01-16 06:20:52 GMT 59.922958 30.787994 12,400 59 367 3456
2020-01-16 06:20:41 GMT 59.914215 30.758606 11,875 59 370 2688
2020-01-16 06:20:31 GMT 59.905144 30.728098 11,475 59 365 1664
2020-01-16 06:20:21 GMT 59.896362 30.699188 11,275 58 356 960
2020-01-16 06:20:11 GMT 59.887711 30.671631 11,100 58 344 1024
2020-01-16 06:20:00 GMT 59.879059 30.644257 10,925 57 331 1216
2020-01-16 06:19:50 GMT 59.871346 30.617476 10,700 64 323 1600
2020-01-16 06:19:40 GMT 59.865738 30.589142 10,325 75 320 2432
2020-01-16 06:19:30 GMT 59.863586 30.560120 9,900 88 318 2496
2020-01-16 06:19:20 GMT 59.863293 30.531290 9,525 88 313 2240
2020-01-16 06:19:10 GMT 59.862900 30.502533 9,175 88 307 2176
2020-01-16 06:18:59 GMT 59.862488 30.473511 8,725 88 303 3008
2020-01-16 06:18:49 GMT 59.862076 30.444946 8,225 88 301 2624
2020-01-16 06:18:39 GMT 59.861710 30.416107 7,700 88 300 3520
2020-01-16 06:18:29 GMT 59.861431 30.389132 7,150 89 302 2944
2020-01-16 06:18:19 GMT 59.861336 30.360718 6,700 89 298 2368
2020-01-16 06:18:09 GMT 59.861336 30.333916 6,350 90 291 1984
2020-01-16 06:17:58 GMT 59.861252 30.305145 6,025 89 280 2176
2020-01-16 06:17:48 GMT 59.861103 30.279837 5,650 89 269 2368

Making use of Plane Finder data

You are free to use the raw flight data, aircraft information and images provided in this report for your own purposes provided the data is correctly attributed to Plane Finder. We ask that you please credit Plane Finder and link to planefinder.net in close proximity to the content.

Optionally one of the following logos (no smaller then 150x24px) can be used and must link to planefinder.net

Embedding the Plane Finder map

You are welcome to embed the Plane Finder playback map on your website to offer visitors a more interactive experience. We suggest using the following HTML code:

<iframe src="//planefinder.net/data/report/SU6343-VP-BZR-7700-squawk-2020-01-16/map" width="800" height="600" seamless="seamless"></iframe>

Where our data comes from

Plane Finder has a global network of data feeds and antenna radars that receive data broadcast directly from aircraft. The primary technologies used are ADS-B and MLAT. We also show feeds from the FAA and a FLARM glider feed.

Click here to find out more about the Plane Finder network.

How we collect our data